Terminal Aerodrome Forecast
Issued by NWS

Home | Current Version | Previous Version | Graphics & Text | Print | Product List | Glossary On
Versions: 1 2 3 4 5 6 7 8 9 10 11 12 13 14 15 16
000
FTUS43 KGRB 071543 AAA
TAFAUW
TAF AMD
KAUW 071543Z 0716/0812 26015G25KT 5SM -SN OVC020
      TEMPO 0716/0720 2SM -SHSN BKN015
     FM072000 26016G27KT P6SM -SN OVC020
     FM072300 27013G23KT P6SM OVC015
     FM080800 27011G20KT 6SM -SHSN OVC015=

USA.gov is the U.S. government's official web portal to all federal, state and local government web resources and services.